createdAt,value
2023-02-11T00:02:29.480Z,100.00
2023-02-11T00:04:57.181Z,100.00
2023-02-11T00:07:24.792Z,100.00
2023-02-11T00:09:52.676Z,100.00
2023-02-11T00:12:20.511Z,100.00
2023-02-11T00:14:50.073Z,100.00
2023-02-11T00:17:17.945Z,100.00
2023-02-11T00:19:45.559Z,100.00
2023-02-11T00:22:13.185Z,100.00
2023-02-11T00:24:40.859Z,100.00
2023-02-11T00:27:08.590Z,100.00
2023-02-11T00:29:36.261Z,100.00
2023-02-11T00:32:06.304Z,100.00
2023-02-11T00:34:34.215Z,100.00
2023-02-11T00:37:01.941Z,100.00
2023-02-11T00:39:30.283Z,100.00
2023-02-11T00:42:00.785Z,100.00
2023-02-11T00:44:28.526Z,100.00
2023-02-11T00:46:56.232Z,100.00
2023-02-11T00:49:25.348Z,100.00
2023-02-11T00:51:53.247Z,100.00
2023-02-11T00:54:20.957Z,100.00
2023-02-11T00:56:48.649Z,100.00
2023-02-11T00:59:16.398Z,100.00
2023-02-11T01:01:44.122Z,100.00
2023-02-11T01:04:11.880Z,100.00
2023-02-11T01:06:40.911Z,100.00
2023-02-11T01:09:09.003Z,100.00
2023-02-11T01:11:36.704Z,100.00
2023-02-11T01:14:05.158Z,100.00
2023-02-11T01:16:32.946Z,100.00
2023-02-11T01:19:00.656Z,100.00
2023-02-11T01:21:28.359Z,100.00
2023-02-11T01:23:57.478Z,100.00
2023-02-11T01:26:25.198Z,100.00
2023-02-11T01:28:53.006Z,100.00
2023-02-11T01:31:20.667Z,100.00
2023-02-11T01:33:49.146Z,100.00
2023-02-11T01:36:16.785Z,100.00
2023-02-11T01:38:45.523Z,100.00
2023-02-11T01:41:15.618Z,100.00
2023-02-11T01:43:46.009Z,100.00
2023-02-11T01:46:31.462Z,100.00
2023-02-11T01:49:03.760Z,100.00
2023-02-11T01:51:37.779Z,100.00
2023-02-11T01:54:27.358Z,100.00
2023-02-11T01:57:17.625Z,100.00
2023-02-11T01:59:52.051Z,100.00
2023-02-11T02:02:24.973Z,100.00
2023-02-11T02:04:57.811Z,100.00
2023-02-11T02:07:31.895Z,100.00
2023-02-11T02:10:05.562Z,100.00
2023-02-11T02:12:34.735Z,100.00
2023-02-11T02:15:26.661Z,100.00
2023-02-11T02:18:04.690Z,100.00
2023-02-11T02:20:53.556Z,100.00
2023-02-11T02:23:39.632Z,100.00
2023-02-11T02:26:42.476Z,100.00
2023-02-11T02:29:46.649Z,100.00
2023-02-11T02:32:42.239Z,100.00
2023-02-11T02:35:17.477Z,100.00
2023-02-11T02:37:52.482Z,100.00
2023-02-11T02:40:24.781Z,100.00
2023-02-11T02:42:53.999Z,100.00
2023-02-11T02:45:21.845Z,100.00
2023-02-11T02:47:50.882Z,100.00
2023-02-11T02:50:25.169Z,100.00
2023-02-11T02:53:04.921Z,100.00
2023-02-11T02:55:45.273Z,100.00
2023-02-11T02:58:35.099Z,100.00
2023-02-11T03:01:14.306Z,100.00
2023-02-11T03:03:55.524Z,100.00
2023-02-11T03:06:31.522Z,100.00
2023-02-11T03:09:05.207Z,100.00
2023-02-11T03:11:33.967Z,100.00
2023-02-11T03:14:05.644Z,100.00
2023-02-11T03:16:39.079Z,100.00
2023-02-11T03:19:13.714Z,100.00
2023-02-11T03:21:44.368Z,100.00
2023-02-11T03:24:17.656Z,100.00
2023-02-11T03:26:49.985Z,100.00
2023-02-11T03:29:22.690Z,100.00
2023-02-11T03:31:57.583Z,100.00
2023-02-11T03:34:31.799Z,100.00
2023-02-11T03:37:04.946Z,100.00
2023-02-11T03:39:37.829Z,100.00
2023-02-11T03:42:08.151Z,100.00
2023-02-11T03:44:41.394Z,100.00
2023-02-11T03:47:11.722Z,100.00
2023-02-11T03:49:42.838Z,100.00
2023-02-11T03:52:12.352Z,100.00
2023-02-11T03:54:43.305Z,100.00
2023-02-11T03:57:11.232Z,100.00
2023-02-11T03:59:53.020Z,100.00
2023-02-11T04:02:21.369Z,100.00
2023-02-11T04:04:50.423Z,100.00
2023-02-11T04:07:18.424Z,100.00
2023-02-11T04:09:46.110Z,100.00
2023-02-11T04:12:13.895Z,100.00
2023-02-11T04:14:41.576Z,100.00
2023-02-11T04:17:09.318Z,100.00
2023-02-11T04:19:37.192Z,100.00
2023-02-11T04:22:07.806Z,100.00
2023-02-11T04:24:36.085Z,100.00
2023-02-11T04:27:03.855Z,100.00
2023-02-11T04:29:32.038Z,100.00
2023-02-11T04:31:59.927Z,100.00
2023-02-11T04:34:27.792Z,100.00
2023-02-11T04:36:55.639Z,100.00
2023-02-11T04:39:24.638Z,100.00
2023-02-11T04:41:52.403Z,100.00
2023-02-11T04:44:21.306Z,100.00
2023-02-11T04:46:48.983Z,100.00
2023-02-11T04:49:17.767Z,100.00
2023-02-11T04:51:48.272Z,100.00
2023-02-11T04:54:17.508Z,100.00
2023-02-11T04:56:46.959Z,100.00
2023-02-11T04:59:15.070Z,100.00
2023-02-11T05:01:46.022Z,100.00
2023-02-11T05:04:13.759Z,100.00
2023-02-11T05:06:41.479Z,100.00
2023-02-11T05:09:09.287Z,100.00
2023-02-11T05:11:39.336Z,100.00
2023-02-11T05:14:08.436Z,100.00
2023-02-11T05:16:36.317Z,100.00
2023-02-11T05:19:04.111Z,100.00
2023-02-11T05:21:31.853Z,100.00
2023-02-11T05:23:59.627Z,100.00
2023-02-11T05:26:27.340Z,100.00
2023-02-11T05:28:55.026Z,100.00
2023-02-11T05:31:24.060Z,100.00
2023-02-11T05:33:51.705Z,100.00
2023-02-11T05:36:19.312Z,100.00
2023-02-11T05:38:46.934Z,100.00
2023-02-11T05:41:14.620Z,100.00
2023-02-11T05:43:42.291Z,100.00
2023-02-11T05:46:10.103Z,100.00
2023-02-11T05:48:39.194Z,100.00
2023-02-11T05:51:06.975Z,100.00
2023-02-11T05:53:34.608Z,100.00
2023-02-11T05:56:02.747Z,100.00
2023-02-11T05:58:30.551Z,100.00
2023-02-11T06:00:58.235Z,100.00
2023-02-11T06:03:25.987Z,100.00
2023-02-11T06:05:55.098Z,100.00
2023-02-11T06:08:22.819Z,100.00
2023-02-11T06:10:50.547Z,100.00
2023-02-11T06:13:19.712Z,100.00
2023-02-11T06:15:57.355Z,100.00
2023-02-11T06:18:25.028Z,100.00
2023-02-11T06:20:52.671Z,100.00
2023-02-11T06:23:21.734Z,100.00
2023-02-11T06:25:49.852Z,100.00
2023-02-11T06:28:17.749Z,100.00
2023-02-11T06:30:45.592Z,100.00
2023-02-11T06:33:13.341Z,100.00
2023-02-11T06:35:41.090Z,100.00
2023-02-11T06:38:08.812Z,100.00
2023-02-11T06:40:37.892Z,100.00
2023-02-11T06:43:05.554Z,100.00
2023-02-11T06:45:33.281Z,100.00
2023-02-11T06:48:00.919Z,100.00
2023-02-11T06:50:28.626Z,100.00
2023-02-11T06:52:56.386Z,100.00
2023-02-11T06:55:23.992Z,100.00
2023-02-11T06:57:53.038Z,100.00
2023-02-11T07:00:20.916Z,100.00
2023-02-11T07:02:48.594Z,100.00
2023-02-11T07:05:16.346Z,100.00
2023-02-11T07:07:44.115Z,100.00
2023-02-11T07:10:11.855Z,100.00
2023-02-11T07:12:39.537Z,100.00
2023-02-11T07:15:09.526Z,100.00
2023-02-11T07:17:37.600Z,100.00
2023-02-11T07:20:05.957Z,100.00
2023-02-11T07:22:34.986Z,100.00
2023-02-11T07:25:02.646Z,100.00
2023-02-11T07:27:30.279Z,100.00
2023-02-11T07:29:57.959Z,100.00
2023-02-11T07:32:27.034Z,100.00
2023-02-11T07:34:55.982Z,100.00
2023-02-11T07:37:23.725Z,100.00
2023-02-11T07:39:51.393Z,100.00
2023-02-11T07:42:19.117Z,100.00
2023-02-11T07:44:50.357Z,100.00
2023-02-11T07:47:18.613Z,100.00
2023-02-11T07:49:47.888Z,100.00
2023-02-11T07:52:15.539Z,100.00
2023-02-11T07:54:43.289Z,100.00
2023-02-11T07:57:11.116Z,100.00
2023-02-11T07:59:38.922Z,100.00
2023-02-11T08:02:06.609Z,100.00
2023-02-11T08:04:34.270Z,100.00
2023-02-11T08:07:03.368Z,100.00
2023-02-11T08:09:33.460Z,100.00
2023-02-11T08:12:02.475Z,100.00
2023-02-11T08:14:30.163Z,99.58
2023-02-11T08:16:57.932Z,99.21
2023-02-11T08:19:25.715Z,100.00
2023-02-11T08:21:56.789Z,100.00
2023-02-11T08:24:25.824Z,100.00
2023-02-11T08:26:53.468Z,100.00
2023-02-11T08:29:21.528Z,100.00
2023-02-11T08:31:49.703Z,100.00
2023-02-11T08:34:19.228Z,100.00
2023-02-11T08:36:48.446Z,100.00
2023-02-11T08:39:20.460Z,100.00
2023-02-11T08:41:51.581Z,100.00
2023-02-11T08:44:20.256Z,100.00
2023-02-11T08:46:48.751Z,100.00
2023-02-11T08:49:17.152Z,100.00
2023-02-11T08:51:46.021Z,100.00
2023-02-11T08:54:14.391Z,100.00
2023-02-11T08:56:42.256Z,100.00
2023-02-11T08:59:14.592Z,100.00
2023-02-11T09:01:44.179Z,100.00
2023-02-11T09:04:12.162Z,99.45
2023-02-11T09:06:40.465Z,100.00
2023-02-11T09:09:11.358Z,100.00
2023-02-11T09:11:40.659Z,100.00
2023-02-11T09:14:08.911Z,100.00
2023-02-11T09:16:38.092Z,100.00
2023-02-11T09:19:06.672Z,99.12
2023-02-11T09:21:34.689Z,99.92
2023-02-11T09:24:02.676Z,98.65
2023-02-11T09:26:33.013Z,96.32
2023-02-11T09:29:02.499Z,94.08
2023-02-11T09:31:33.043Z,94.43
2023-02-11T09:34:04.388Z,95.28
2023-02-11T09:36:37.236Z,94.91
2023-02-11T09:39:09.925Z,96.02
2023-02-11T09:41:52.454Z,96.15
2023-02-11T09:44:24.061Z,94.66
2023-02-11T09:46:56.866Z,91.67
2023-02-11T09:49:32.173Z,88.48
2023-02-11T09:52:06.254Z,84.63
2023-02-11T09:54:40.189Z,83.31
2023-02-11T09:57:22.894Z,82.14
2023-02-11T09:59:56.481Z,83.57
2023-02-11T10:02:29.311Z,86.28
2023-02-11T10:05:21.397Z,87.46
2023-02-11T10:07:57.349Z,85.27
2023-02-11T10:10:41.697Z,79.84
2023-02-11T10:13:30.381Z,79.25
2023-02-11T10:16:07.636Z,78.65
2023-02-11T10:18:47.646Z,82.69
2023-02-11T10:21:26.528Z,84.68
2023-02-11T10:24:00.858Z,86.02
2023-02-11T10:26:31.258Z,86.56
2023-02-11T10:29:05.908Z,90.33
2023-02-11T10:31:38.819Z,90.13
2023-02-11T10:34:08.872Z,89.98
2023-02-11T10:36:39.692Z,89.37
2023-02-11T10:39:13.255Z,89.51
2023-02-11T10:41:44.693Z,89.71
2023-02-11T10:44:24.356Z,89.59
2023-02-11T10:46:52.947Z,90.33
2023-02-11T10:49:36.346Z,90.87
2023-02-11T10:52:25.371Z,91.25
2023-02-11T10:55:06.709Z,92.25
2023-02-11T10:57:38.261Z,92.45
2023-02-11T11:00:22.822Z,92.85
2023-02-11T11:02:58.126Z,93.79
2023-02-11T11:05:34.218Z,93.64
2023-02-11T11:08:07.250Z,94.67
2023-02-11T11:10:44.977Z,95.03
2023-02-11T11:13:28.369Z,95.10
2023-02-11T11:16:25.918Z,94.67
2023-02-11T11:19:10.357Z,95.31
2023-02-11T11:21:42.789Z,96.23
2023-02-11T11:24:21.869Z,96.39
2023-02-11T11:26:53.979Z,96.23
2023-02-11T11:29:27.035Z,96.30
2023-02-11T11:31:58.112Z,95.80
2023-02-11T11:34:30.994Z,96.47
2023-02-11T11:37:00.661Z,96.35
2023-02-11T11:39:32.608Z,96.00
2023-02-11T11:42:02.110Z,96.10
2023-02-11T11:44:32.731Z,96.53
2023-02-11T11:47:20.651Z,97.14
2023-02-11T11:49:56.958Z,97.15
2023-02-11T11:52:38.557Z,96.72
2023-02-11T11:55:16.961Z,96.63
2023-02-11T11:57:44.961Z,97.01
2023-02-11T12:00:19.206Z,96.35
2023-02-11T12:03:19.560Z,97.23
2023-02-11T12:06:00.285Z,97.10
2023-02-11T12:08:37.983Z,97.25
2023-02-11T12:11:17.464Z,97.90
2023-02-11T12:14:01.175Z,97.57
2023-02-11T12:16:37.752Z,96.61
2023-02-11T12:19:43.486Z,97.15
2023-02-11T12:22:12.598Z,95.57
2023-02-11T12:24:53.663Z,94.76
2023-02-11T12:27:35.307Z,94.18
2023-02-11T12:30:20.324Z,95.86
2023-02-11T12:32:53.980Z,96.87
2023-02-11T12:35:41.650Z,97.08
2023-02-11T12:38:30.470Z,97.87
2023-02-11T12:41:10.868Z,98.05
2023-02-11T12:43:41.035Z,98.03
2023-02-11T12:46:35.006Z,99.10
2023-02-11T12:49:26.151Z,99.73
2023-02-11T12:52:08.568Z,100.00
2023-02-11T12:54:42.808Z,100.00
2023-02-11T12:57:19.271Z,100.00
2023-02-11T12:59:56.670Z,100.00
2023-02-11T13:02:38.488Z,100.00
2023-02-11T13:05:16.424Z,98.53
2023-02-11T13:07:47.396Z,98.55
2023-02-11T13:10:26.360Z,97.29
2023-02-11T13:13:13.560Z,96.37
2023-02-11T13:15:44.965Z,96.97
2023-02-11T13:18:32.680Z,95.77
2023-02-11T13:21:20.426Z,95.45
2023-02-11T13:23:58.057Z,94.03
2023-02-11T13:26:32.821Z,93.57
2023-02-11T13:29:16.907Z,92.74
2023-02-11T13:31:54.508Z,93.36
2023-02-11T13:34:28.130Z,93.48
2023-02-11T13:36:58.197Z,91.89
2023-02-11T13:39:26.101Z,91.07
2023-02-11T13:42:04.323Z,91.25
2023-02-11T13:44:35.414Z,90.74
2023-02-11T13:47:06.460Z,90.20
2023-02-11T13:49:41.054Z,91.31
2023-02-11T13:52:23.348Z,91.12
2023-02-11T13:54:53.827Z,90.87
2023-02-11T13:57:30.740Z,95.85
2023-02-11T14:00:00.456Z,100.00
2023-02-11T14:02:50.513Z,100.00
2023-02-11T14:05:50.233Z,100.00
2023-02-11T14:08:43.620Z,100.00
2023-02-11T14:11:46.031Z,100.00
2023-02-11T14:14:33.530Z,100.00
2023-02-11T14:17:30.843Z,100.00
2023-02-11T14:20:03.235Z,100.00
2023-02-11T14:22:32.881Z,100.00
2023-02-11T14:25:02.539Z,100.00
2023-02-11T14:27:34.266Z,100.00
2023-02-11T14:30:21.349Z,100.00
2023-02-11T14:33:08.492Z,100.00
2023-02-11T14:35:44.962Z,100.00
2023-02-11T14:38:23.665Z,100.00
2023-02-11T14:40:59.404Z,100.00
2023-02-11T14:43:32.374Z,100.00
2023-02-11T14:46:03.868Z,100.00
2023-02-11T14:48:36.031Z,100.00
2023-02-11T14:51:09.084Z,100.00
2023-02-11T14:53:39.133Z,100.00
2023-02-11T14:56:18.813Z,100.00
2023-02-11T14:58:49.032Z,100.00
2023-02-11T15:01:30.081Z,100.00
2023-02-11T15:04:00.573Z,100.00
2023-02-11T15:06:32.888Z,100.00
2023-02-11T15:09:05.068Z,100.00
2023-02-11T15:11:39.010Z,100.00
2023-02-11T15:14:11.695Z,100.00
2023-02-11T15:16:43.838Z,100.00
2023-02-11T15:19:24.085Z,100.00
2023-02-11T15:21:54.180Z,100.00
2023-02-11T15:24:25.865Z,100.00
2023-02-11T15:26:58.013Z,100.00
2023-02-11T15:29:26.526Z,100.00
2023-02-11T15:32:09.034Z,100.00
2023-02-11T15:34:37.520Z,100.00
2023-02-11T15:37:06.839Z,100.00
2023-02-11T15:39:37.840Z,100.00
2023-02-11T15:42:26.281Z,100.00
2023-02-11T15:45:11.755Z,100.00
2023-02-11T15:47:40.538Z,100.00
2023-02-11T15:50:09.275Z,100.00
2023-02-11T15:52:38.378Z,100.00
2023-02-11T15:55:06.735Z,100.00
2023-02-11T15:57:35.115Z,100.00
2023-02-11T16:00:07.125Z,100.00
2023-02-11T16:02:38.610Z,100.00
2023-02-11T16:05:09.360Z,100.00
2023-02-11T16:07:43.856Z,100.00
2023-02-11T16:10:19.379Z,100.00
2023-02-11T16:12:53.797Z,100.00
2023-02-11T16:15:45.164Z,100.00
2023-02-11T16:18:37.399Z,100.00
2023-02-11T16:21:08.729Z,100.00
2023-02-11T16:23:42.377Z,100.00
2023-02-11T16:26:21.581Z,100.00
2023-02-11T16:28:50.162Z,100.00
2023-02-11T16:31:18.516Z,100.00
2023-02-11T16:33:46.501Z,100.00
2023-02-11T16:36:17.148Z,100.00
2023-02-11T16:38:46.210Z,100.00
2023-02-11T16:41:14.341Z,100.00
2023-02-11T16:43:42.052Z,100.00
2023-02-11T16:46:11.993Z,100.00
2023-02-11T16:48:39.715Z,100.00
2023-02-11T16:51:09.229Z,100.00
2023-02-11T16:53:36.924Z,100.00
2023-02-11T16:56:06.576Z,100.00
2023-02-11T16:58:34.361Z,100.00
2023-02-11T17:01:02.291Z,100.00
2023-02-11T17:03:31.339Z,100.00
2023-02-11T17:05:59.355Z,100.00
2023-02-11T17:08:27.348Z,100.00
2023-02-11T17:10:55.152Z,100.00
2023-02-11T17:13:24.227Z,100.00
2023-02-11T17:15:52.287Z,100.00
2023-02-11T17:18:20.148Z,100.00
2023-02-11T17:20:47.928Z,100.00
2023-02-11T17:23:15.683Z,100.00
2023-02-11T17:25:43.495Z,100.00
2023-02-11T17:28:12.177Z,100.00
2023-02-11T17:30:43.634Z,100.00
2023-02-11T17:33:11.356Z,100.00
2023-02-11T17:35:40.964Z,100.00
2023-02-11T17:38:08.707Z,100.00
2023-02-11T17:40:36.399Z,100.00
2023-02-11T17:43:04.489Z,100.00
2023-02-11T17:45:32.336Z,100.00
2023-02-11T17:48:01.414Z,100.00
2023-02-11T17:50:29.566Z,100.00
2023-02-11T17:52:58.092Z,100.00
2023-02-11T17:55:25.742Z,100.00
2023-02-11T17:57:53.722Z,100.00
2023-02-11T18:00:22.855Z,100.00
2023-02-11T18:02:50.627Z,100.00
2023-02-11T18:05:19.768Z,100.00
2023-02-11T18:07:48.414Z,100.00
2023-02-11T18:10:16.312Z,100.00
2023-02-11T18:12:44.393Z,100.00
2023-02-11T18:15:12.690Z,100.00
2023-02-11T18:17:40.395Z,100.00
2023-02-11T18:20:09.689Z,100.00
2023-02-11T18:22:41.005Z,100.00
2023-02-11T18:25:10.359Z,100.00
2023-02-11T18:27:38.210Z,100.00
2023-02-11T18:30:07.124Z,100.00
2023-02-11T18:32:34.834Z,100.00
2023-02-11T18:35:02.577Z,100.00
2023-02-11T18:37:30.219Z,100.00
2023-02-11T18:39:59.228Z,100.00
2023-02-11T18:42:28.098Z,100.00
2023-02-11T18:44:55.749Z,100.00
2023-02-11T18:47:24.707Z,100.00
2023-02-11T18:49:52.421Z,100.00
2023-02-11T18:52:20.051Z,100.00
2023-02-11T18:54:47.757Z,100.00
2023-02-11T18:57:16.869Z,100.00
2023-02-11T18:59:44.720Z,100.00
2023-02-11T19:02:12.476Z,100.00
2023-02-11T19:04:40.290Z,100.00
2023-02-11T19:07:08.632Z,100.00
2023-02-11T19:09:36.539Z,100.00
2023-02-11T19:12:04.686Z,100.00
2023-02-11T19:14:34.820Z,100.00
2023-02-11T19:17:06.423Z,100.00
2023-02-11T19:19:36.095Z,100.00
2023-02-11T19:22:10.680Z,100.00
2023-02-11T19:24:39.085Z,100.00
2023-02-11T19:27:07.098Z,100.00
2023-02-11T19:29:36.269Z,100.00
2023-02-11T19:32:05.784Z,100.00
2023-02-11T19:34:40.959Z,100.00
2023-02-11T19:37:10.756Z,100.00
2023-02-11T19:39:38.541Z,100.00
2023-02-11T19:42:06.620Z,100.00
2023-02-11T19:44:36.825Z,100.00
2023-02-11T19:47:14.741Z,100.00
2023-02-11T19:49:42.440Z,100.00
2023-02-11T19:52:10.479Z,100.00
2023-02-11T19:54:41.724Z,100.00
2023-02-11T19:57:09.537Z,100.00
2023-02-11T19:59:37.294Z,100.00
2023-02-11T20:02:06.416Z,100.00
2023-02-11T20:04:34.242Z,100.00
2023-02-11T20:07:02.360Z,100.00
2023-02-11T20:09:31.049Z,100.00
2023-02-11T20:11:59.460Z,100.00
2023-02-11T20:14:28.158Z,100.00
2023-02-11T20:16:56.486Z,100.00
2023-02-11T20:19:26.068Z,100.00
2023-02-11T20:21:57.930Z,100.00
2023-02-11T20:24:27.008Z,100.00
2023-02-11T20:26:56.067Z,100.00
2023-02-11T20:29:26.269Z,100.00
2023-02-11T20:31:54.905Z,100.00
2023-02-11T20:34:23.453Z,100.00
2023-02-11T20:36:54.298Z,100.00
2023-02-11T20:39:23.180Z,100.00
2023-02-11T20:41:52.482Z,100.00
2023-02-11T20:44:21.707Z,100.00
2023-02-11T20:46:49.880Z,100.00
2023-02-11T20:49:22.480Z,100.00
2023-02-11T20:51:53.895Z,100.00
2023-02-11T20:54:22.957Z,100.00
2023-02-11T20:56:51.796Z,100.00
2023-02-11T20:59:19.758Z,100.00
2023-02-11T21:01:50.537Z,100.00
2023-02-11T21:04:21.079Z,100.00
2023-02-11T21:06:50.491Z,100.00
2023-02-11T21:09:21.777Z,100.00
2023-02-11T21:11:51.537Z,100.00
2023-02-11T21:14:20.792Z,100.00
2023-02-11T21:16:48.924Z,100.00
2023-02-11T21:19:17.094Z,100.00
2023-02-11T21:21:45.360Z,100.00
2023-02-11T21:24:13.200Z,100.00
2023-02-11T21:26:42.605Z,100.00
2023-02-11T21:29:10.697Z,100.00
2023-02-11T21:31:39.229Z,100.00
2023-02-11T21:34:07.749Z,100.00
2023-02-11T21:36:35.723Z,100.00
2023-02-11T21:39:04.182Z,100.00
2023-02-11T21:41:32.024Z,100.00
2023-02-11T21:44:01.130Z,100.00
2023-02-11T21:46:29.309Z,100.00
2023-02-11T21:48:58.328Z,100.00
2023-02-11T21:51:26.633Z,100.00
2023-02-11T21:53:55.499Z,100.00
2023-02-11T21:56:23.781Z,100.00
2023-02-11T21:58:54.629Z,100.00
2023-02-11T22:01:25.689Z,100.00
2023-02-11T22:03:53.580Z,100.00
2023-02-11T22:06:26.156Z,100.00
2023-02-11T22:08:54.845Z,100.00
2023-02-11T22:11:23.052Z,100.00
2023-02-11T22:13:54.668Z,100.00
2023-02-11T22:16:24.455Z,100.00
2023-02-11T22:18:52.416Z,100.00
2023-02-11T22:21:22.510Z,100.00
2023-02-11T22:23:50.619Z,100.00
2023-02-11T22:26:23.919Z,100.00
2023-02-11T22:28:52.467Z,100.00
2023-02-11T22:31:22.354Z,100.00
2023-02-11T22:33:52.050Z,100.00
2023-02-11T22:36:23.332Z,100.00
2023-02-11T22:38:52.680Z,100.00
2023-02-11T22:41:21.383Z,100.00
2023-02-11T22:43:49.693Z,100.00
2023-02-11T22:46:19.461Z,100.00
2023-02-11T22:48:48.977Z,100.00
2023-02-11T22:51:20.588Z,100.00
2023-02-11T22:53:54.176Z,100.00
2023-02-11T22:56:22.500Z,100.00
2023-02-11T22:58:50.984Z,100.00
2023-02-11T23:01:20.217Z,100.00
2023-02-11T23:03:49.740Z,100.00
2023-02-11T23:06:19.030Z,100.00
2023-02-11T23:08:47.670Z,100.00
2023-02-11T23:11:18.370Z,100.00
2023-02-11T23:13:50.432Z,100.00
2023-02-11T23:16:20.884Z,100.00
2023-02-11T23:18:49.902Z,100.00
2023-02-11T23:21:23.327Z,100.00
2023-02-11T23:23:55.959Z,100.00
2023-02-11T23:26:23.984Z,100.00
2023-02-11T23:28:51.866Z,100.00
2023-02-11T23:31:25.979Z,100.00
2023-02-11T23:33:54.865Z,100.00
2023-02-11T23:36:28.653Z,100.00
2023-02-11T23:38:56.995Z,100.00
2023-02-11T23:41:25.382Z,100.00
2023-02-11T23:44:00.394Z,100.00
2023-02-11T23:46:29.188Z,100.00
2023-02-11T23:48:58.998Z,100.00
2023-02-11T23:51:28.720Z,100.00
2023-02-11T23:53:58.701Z,100.00
2023-02-11T23:56:28.272Z,100.00
2023-02-11T23:59:00.120Z,100.00
